Hassan I Airport El Aaiun EH
ICAO: GMML
IATA: EUN
Category: Medium
Scheduled Services: Yes

Elevation: 207 ft
TransAlt. 3000 ft.

Airport Communications:
LAAYOUNE APP:127.5
LAAYOUNE TWR:131.1

GMML Zoom In..

If you have problems with the map follow the link
https://www.worldairports.se/pages/airport.php?
ICAO=GMML

Runways:

(A) RW 02 length 8858 ft width 148 ft
ILS 110.70 / hdg 21

(B) RW 04 length 8202 ft width 148 ft
---- / hdg 37

(C) RW 20 length 8858 ft width 148 ft
---- / hdg 201

(D) RW 22 length 8202 ft width 148 ft
---- / hdg 217

Location; GMML
Day. 05 / Time. 09.50 Zulu
* QNH: 1027
* Temperature: 12° c. 53.6°f.
* Wind from: 110° Speed 05 kn.
Dewpoint: 12° c.
Visibility: 5000 m.
No significant clouds are observed below 5000 ft.
No significant changes expected in the near future.

GMML 050950Z 11005KT 5000 NSC 12/12 Q1027 NOSIG


Wind From 110°
Speed 05 kn.

 
 
jpsmedia worldairports.se 2020   terms of use